Latest Coastal Weather Observations for Mackay

IDQ60701

Issued at 8:42 pm EST Thursday 13 December 2018 (issued every 10 minutes, with the page automatically refreshed every 10 minutes)

About coastal observations | Map of coastal stations | Coastal observations for QLD | Marine services | Other Formats
Station Details ID: 033119 Name: MACKAY M.O Lat: -21.12 Lon: 149.22 Height: 30.26 m
Data from the previous 72 hours. | See also: Recent months at Mackay
Date/Time
EST
Wind Sea
Height
m
Swell Vis
km
Cloud Weather Temp
°C
Press
hPa
Rain since
9am
mm
Dir  Spd
kts
Gust
kts
Height
m
Period
s
Dir
13/08:30pm NW 4 5 - - - - - - - 23.1 1006.6 34.4
13/08:00pm NW 5 7 - - - - - - - 23.1 1006.5 34.4
13/07:30pm WNW 4 6 - - - - - - - 23.1 1006.2 34.4
13/07:00pm W 5 7 - - - - - - - 23.1 1006.0 34.4
13/06:30pm WSW 4 5 - - - - - - - 23.4 1005.8 34.4
13/06:00pm SSW 2 4 - - - - - - - 23.6 1005.3 34.4
13/05:30pm S 2 5 - - - - - - - 23.5 1005.4 34.4
13/05:00pm E 3 5 - - - - - - - 23.5 1005.5 34.4
13/04:30pm SE 5 9 - - - - - - - 22.9 1005.7 34.4
13/04:00pm SSE 5 7 - - - - - - - 22.6 1006.5 34.4
13/03:30pm SE 7 11 - - - - - - - 22.2 1006.3 32.8
13/03:00pm S 9 16 - - - - - - Rain 22.2 1006.5 10.6
13/02:30pm NE 4 7 - - - - - - - 27.0 1006.7 0.2
13/02:00pm NNE 5 9 - - - - - - - 27.8 1006.3 0.0
13/01:30pm NNE 7 11 - - - - - - - 29.2 1006.6 0.0
13/01:00pm NNE 7 11 - - - - - - - 29.7 1006.8 0.0
13/12:30pm NNE 7 13 - - - - - - - 29.8 1007.4 0.0
13/12:00pm NNE 8 13 - - - - - - - 29.5 1007.5 0.0
13/11:30am NNE 8 12 - - - - - - - 29.7 1007.8 0.0
13/11:00am NNE 8 11 - - - - - - - 30.9 1008.0 0.0
13/10:30am NNE 7 13 - - - - - - - 30.6 1008.2 0.0
13/10:00am NNE 9 15 - - - - - - - 29.9 1008.5 0.0
13/09:30am NNE 8 12 - - - - - - - 29.5 1008.8 0.0
13/09:00am NNE 6 11 - - - - - - - 28.8 1009.0 8.2
13/08:30am NNE 6 9 - - - - - - - 27.4 1009.0 8.2
13/08:00am NNE 5 8 - - - - - - - 27.1 1009.2 8.2
13/07:30am NNE 6 9 - - - - - - - 26.1 1009.1 8.2
13/07:00am NNE 5 8 - - - - - - - 26.4 1009.0 8.2
13/06:30am NE 5 9 - - - - - - - 26.3 1008.5 8.2
13/06:00am NE 6 9 - - - - - - - 25.9 1008.1 8.2
13/05:30am NE 6 11 - - - - - - - 25.5 1008.2 8.2
13/05:00am NE 6 11 - - - - - - - 25.4 1007.9 8.2
13/04:30am NE 5 9 - - - - - - - 25.5 1007.7 8.2
13/04:00am NE 6 11 - - - - - - - 25.4 1007.3 8.2
13/03:30am NE 7 13 - - - - - - - 25.3 1007.2 8.2
13/03:00am NE 7 14 - - - - - - - 25.3 1007.2 8.2
13/02:30am NE 7 13 - - - - - - - 25.2 1007.3 8.2
13/02:00am NE 7 12 - - - - - - - 25.0 1007.7 8.2
13/01:30am NE 7 15 - - - - - - - 25.0 1008.1 8.2
13/01:00am NE 6 12 - - - - - - - 25.0 1008.4 8.2
13/12:30am NE 6 13 - - - - - - - 24.9 1009.0 8.2
13/12:00am NE 7 12 - - - - - - - 24.8 1009.3 8.2
 
Date/Time
EST
Wind Sea
Height
m
Swell Vis
km
Cloud Weather Temp
°C
Press
hPa
Rain since
9am
mm
Dir  Spd
kts
Gust
kts
Height
m
Period
s
Dir
12/11:30pm ENE 8 13 - - - - - - - 25.0 1009.8 8.2
12/11:00pm NE 7 13 - - - - - - - 25.0 1009.8 8.2
12/10:30pm NE 8 15 - - - - - - - 24.9 1010.2 8.2
12/10:00pm E 8 14 - - - - - - - 25.2 1010.1 8.2
12/09:30pm E 11 16 - - - - - - - 25.3 1010.1 7.8
12/09:00pm E 11 17 - - - - - - Rain 25.1 1010.0 7.8
12/08:30pm E 12 18 - - - - - - - 24.9 1009.9 7.6
12/08:00pm E 11 16 - - - - - - - 25.0 1009.9 6.4
12/07:30pm E 9 14 - - - - - - - 24.8 1009.8 5.8
12/07:00pm ESE 7 11 - - - - - - - 25.2 1009.5 2.6
12/06:30pm E 11 17 - - - - - - - 25.6 1009.4 2.6
12/06:00pm ESE 7 13 - - - - - - - 25.6 1009.4 2.6
12/05:30pm ESE 8 13 - - - - - - - 25.4 1009.0 2.6
12/05:00pm ESE 8 14 - - - - - - - 25.8 1008.8 2.6
12/04:30pm ESE 10 15 - - - - - - - 25.3 1008.7 2.6
12/04:00pm ESE 10 18 - - - - - - - 25.5 1008.4 2.6
12/03:30pm E 7 11 - - - - - - - 26.4 1008.4 2.6
12/03:00pm E 11 17 - - - - - - - 26.0 1008.6 2.4
12/02:30pm SE 6 10 - - - - - - - 27.3 1008.7 2.4
12/02:00pm SE 6 10 - - - - - - - 26.0 1009.1 2.4
12/01:30pm SE 6 9 - - - - - - - 25.9 1009.4 2.4
12/01:00pm ESE 7 11 - - - - - - - 26.0 1009.6 2.4
12/12:30pm ESE 7 11 - - - - - - - 27.2 1009.8 2.4
12/12:00pm E 9 15 - - - - - - - 27.2 1010.0 2.2
12/11:30am E 10 15 - - - - - - - 26.2 1010.4 2.2
12/11:00am ENE 9 13 - - - - - - - 26.7 1010.7 2.2
12/10:30am ESE 7 12 - - - - - - - 25.5 1011.0 2.2
12/10:00am E 12 17 - - - - - - - 25.1 1011.2 2.0
12/09:30am ESE 8 13 - - - - - - - 26.7 1011.2 0.0
12/09:00am ESE 8 12 - - - - - - - 27.5 1011.0 2.2
12/08:30am SE 7 11 - - - - - - - 25.6 1011.1 2.2
12/08:00am ESE 9 15 - - - - - - - 24.6 1011.2 2.2
12/07:30am ESE 9 16 - - - - - - - 26.2 1011.1 2.2
12/07:00am ESE 8 13 - - - - - - - 26.3 1011.0 2.2
12/06:30am ESE 8 13 - - - - - - - 26.1 1010.7 2.2
12/06:00am ESE 8 14 - - - - - - - 25.8 1010.4 2.2
12/05:30am ESE 9 15 - - - - - - - 25.6 1010.2 2.2
12/05:00am ESE 11 20 - - - - - - - 25.5 1009.8 2.2
12/04:30am SE 10 18 - - - - - - - 25.3 1009.4 2.2
12/04:00am SE 10 16 - - - - - - - 25.0 1009.2 2.0
12/03:30am SE 9 14 - - - - - - - 25.0 1009.2 2.0
12/03:00am SE 9 15 - - - - - - - 25.1 1009.1 2.0
12/02:30am SE 10 17 - - - - - - - 25.0 1009.2 2.0
12/02:00am SSE 9 13 - - - - - - - 24.9 1009.5 2.0
12/01:30am SSE 9 14 - - - - - - - 24.6 1009.8 1.8
12/01:00am SSE 8 14 - - - - - - - 24.6 1010.3 1.8
12/12:30am SE 9 17 - - - - - - - 24.6 1010.7 1.8
12/12:00am ESE 10 16 - - - - - - - 24.6 1011.2 1.6
 
Date/Time
EST
Wind Sea
Height
m
Swell Vis
km
Cloud Weather Temp
°C
Press
hPa
Rain since
9am
mm
Dir  Spd
kts
Gust
kts
Height
m
Period
s
Dir
11/11:30pm SSE 10 16 - - - - - - - 24.5 1011.5 1.6
11/11:00pm SSE 10 15 - - - - - - - 24.8 1011.8 1.6
11/10:30pm SE 11 19 - - - - - - - 25.0 1011.8 0.8
11/10:00pm SE 12 20 - - - - - - - 25.6 1011.9 0.0
11/09:30pm SE 11 17 - - - - - - - 25.9 1012.0 0.0
11/09:00pm SE 11 15 - - - - - - - 26.0 1011.6 0.0
11/08:30pm SE 10 15 - - - - - - - 25.9 1011.4 0.0
11/08:00pm SE 7 12 - - - - - - - 26.0 1011.0 0.0
11/07:30pm SE 9 15 - - - - - - - 26.1 1010.7 0.0
11/07:00pm SE 9 15 - - - - - - - 26.2 1010.3 0.0
11/06:30pm SE 10 16 - - - - - - - 26.4 1010.4 0.0
11/06:00pm SE 10 16 - - - - - - - 26.7 1010.2 0.0
11/05:30pm SSE 10 15 - - - - - - - 26.6 1009.8 0.0
11/05:00pm SSE 10 16 - - - - - - - 27.6 1009.6 0.0
11/04:30pm SSE 10 15 - - - - - - - 27.5 1009.5 0.0
11/04:00pm SE 11 16 - - - - - - - 28.0 1009.5 0.0
11/03:30pm SE 11 18 - - - - - - - 28.5 1009.5 0.0
11/03:00pm SSE 11 17 - - - - - - - 29.1 1009.8 0.0
11/02:30pm SSE 10 14 - - - - - - - 28.9 1010.0 0.0
11/02:00pm SSE 11 17 - - - - - - - 28.4 1010.3 0.0
11/01:30pm SSE 10 16 - - - - - - - 28.2 1010.6 0.0
11/01:00pm SSE 9 15 - - - - - - - 28.3 1011.0 0.0
11/12:30pm SE 9 14 - - - - - - - 28.1 1011.3 0.0
11/12:00pm SSE 9 13 - - - - - - - 28.2 1011.5 0.0
11/11:30am SE 9 15 - - - - - - - 28.3 1011.7 0.0
11/11:00am SE 8 15 - - - - - - - 29.1 1011.9 0.0
11/10:30am SE 9 15 - - - - - - - 28.1 1012.0 0.0
11/10:00am SSE 9 17 - - - - - - - 28.4 1012.3 0.0
11/09:30am SE 10 16 - - - - - - - 28.4 1012.5 0.0
11/09:00am SE 10 14 - - - - - - - 27.7 1012.8 2.0
11/08:30am SE 9 16 - - - - - - - 27.3 1012.6 2.0
11/08:00am SSE 11 17 - - - - - - - 26.6 1012.6 2.0
11/07:30am SSE 10 15 - - - - - - - 27.1 1012.3 2.0
11/07:00am SE 9 15 - - - - - - - 26.6 1011.9 2.0
11/06:30am SE 10 14 - - - - - - - 26.4 1011.5 2.0
11/06:00am SE 9 14 - - - - - - - 25.5 1011.2 2.0
11/05:30am SSE 10 16 - - - - - - - 25.2 1010.6 2.0
11/05:00am SSE 10 17 - - - - - - - 24.8 1010.3 2.0
11/04:30am SSE 11 16 - - - - - - - 25.0 1010.2 2.0
11/04:00am SSE 11 18 - - - - - - - 24.9 1010.1 2.0
11/03:30am SSE 11 18 - - - - - - - 25.4 1010.4 2.0
11/03:00am SSE 10 15 - - - - - - - 25.4 1010.1 2.0
11/02:30am SSE 11 17 - - - - - - - 25.4 1010.3 2.0
11/02:00am SSE 10 16 - - - - - - - 25.4 1010.6 2.0
11/01:30am SSE 10 15 - - - - - - - 25.4 1010.9 2.0
11/01:00am SE 11 17 - - - - - - - 25.5 1011.1 2.0
11/12:30am SSE 10 17 - - - - - - - 25.5 1011.3 2.0
11/12:00am SE 11 17 - - - - - - - 25.6 1011.5 2.0
 
Date/Time
EST
Wind Sea
Height
m
Swell Vis
km
Cloud Weather Temp
°C
Press
hPa
Rain since
9am
mm
Dir  Spd
kts
Gust
kts
Height
m
Period
s
Dir
10/11:30pm SE 11 16 - - - - - - - 25.7 1011.9 2.0
10/11:00pm SE 10 14 - - - - - - - 25.7 1012.1 2.0
10/10:30pm SE 12 19 - - - - - - - 25.8 1012.1 2.0
10/10:00pm SE 10 19 - - - - - - - 25.8 1012.1 2.0
10/09:30pm SE 10 17 - - - - - - - 25.8 1011.9 2.0
10/09:00pm SE 10 16 - - - - - - - 25.9 1011.8 2.0

Other Formats:

Comma delimited format used in spreadsheet applications
http://www.bom.gov.au/fwo/IDQ60701/IDQ60701.94367.axf

JavaScript Object Notation format (JSON) in row-major order
http://www.bom.gov.au/fwo/IDQ60701/IDQ60701.94367.json